Brogdon, South Carolina
Current Conditions -  °F | °C
As of 1:15 PM on Thursday 18 Dec 2014 (Local Time) from KSMS Reporting Station
Clear Clear  
Wind Chill: 57°   Ceiling: Unl
Heat Index: 57°   Visibility: 10mi
Dew Point: 30°   Wind: 5mph
Humidity: 36%   Direction: 20°NNE
Pressure: 30.12"   Gusts: NA
Location:  33.9242°N, 80.1986°W
Report Text: KSMS 181815Z AUTO 02004KT 10SM CLR 14/M01 A3012 RMK AO2
Loading
Personal Weather Stations






























Interactive Weather Map New forecast layout! Learn more

10-Day Weather Forecast

Advertisements
Track Severe Weather on mobile